sensor_id;sensor_type;location;lat;lon;timestamp;P1;durP1;ratioP1;P2;durP2;ratioP2
71423;SDS011;59240;51.370;-0.486;2022-11-15T00:00:54;5.23;;;1.10;;
71423;SDS011;59240;51.370;-0.486;2022-11-15T00:03:25;6.25;;;0.70;;
71423;SDS011;59240;51.370;-0.486;2022-11-15T00:05:52;7.85;;;0.80;;
71423;SDS011;59240;51.370;-0.486;2022-11-15T00:08:19;6.13;;;0.90;;
71423;SDS011;59240;51.370;-0.486;2022-11-15T00:10:55;7.78;;;1.00;;
71423;SDS011;59240;51.370;-0.486;2022-11-15T00:13:23;8.20;;;0.90;;
71423;SDS011;59240;51.370;-0.486;2022-11-15T00:15:50;4.82;;;0.80;;
71423;SDS011;59240;51.370;-0.486;2022-11-15T00:18:16;5.65;;;1.10;;
71423;SDS011;59240;51.370;-0.486;2022-11-15T00:20:43;4.03;;;0.50;;
71423;SDS011;59240;51.370;-0.486;2022-11-15T00:23:11;8.10;;;0.98;;
71423;SDS011;59240;51.370;-0.486;2022-11-15T00:25:37;6.07;;;0.90;;
71423;SDS011;59240;51.370;-0.486;2022-11-15T00:28:04;5.30;;;0.60;;
71423;SDS011;59240;51.370;-0.486;2022-11-15T00:30:31;8.15;;;0.88;;
71423;SDS011;59240;51.370;-0.486;2022-11-15T00:33:01;6.28;;;0.50;;
71423;SDS011;59240;51.370;-0.486;2022-11-15T00:35:31;5.25;;;0.68;;
71423;SDS011;59240;51.370;-0.486;2022-11-15T00:37:59;7.93;;;0.60;;
71423;SDS011;59240;51.370;-0.486;2022-11-15T00:40:26;5.63;;;0.50;;
71423;SDS011;59240;51.370;-0.486;2022-11-15T00:42:53;7.80;;;0.70;;
71423;SDS011;59240;51.370;-0.486;2022-11-15T00:45:19;4.97;;;0.63;;
71423;SDS011;59240;51.370;-0.486;2022-11-15T00:47:46;5.57;;;0.70;;
71423;SDS011;59240;51.370;-0.486;2022-11-15T00:50:12;6.57;;;0.90;;
71423;SDS011;59240;51.370;-0.486;2022-11-15T00:52:40;3.95;;;0.25;;
71423;SDS011;59240;51.370;-0.486;2022-11-15T00:55:09;7.25;;;0.68;;
71423;SDS011;59240;51.370;-0.486;2022-11-15T00:57:41;9.90;;;0.80;;
71423;SDS011;59240;51.370;-0.486;2022-11-15T01:00:07;7.68;;;0.73;;
71423;SDS011;59240;51.370;-0.486;2022-11-15T01:02:35;7.73;;;0.40;;
71423;SDS011;59240;51.370;-0.486;2022-11-15T01:05:01;11.18;;;1.08;;
71423;SDS011;59240;51.370;-0.486;2022-11-15T01:07:28;8.65;;;0.47;;
71423;SDS011;59240;51.370;-0.486;2022-11-15T01:09:54;6.38;;;0.52;;
71423;SDS011;59240;51.370;-0.486;2022-11-15T01:12:21;6.07;;;0.63;;
71423;SDS011;59240;51.370;-0.486;2022-11-15T01:14:47;10.43;;;1.07;;
71423;SDS011;59240;51.370;-0.486;2022-11-15T01:17:14;5.50;;;0.85;;
71423;SDS011;59240;51.370;-0.486;2022-11-15T01:19:40;14.75;;;0.73;;
71423;SDS011;59240;51.370;-0.486;2022-11-15T01:22:07;7.43;;;0.70;;
71423;SDS011;59240;51.370;-0.486;2022-11-15T01:24:33;12.82;;;2.05;;
71423;SDS011;59240;51.370;-0.486;2022-11-15T01:27:00;14.53;;;1.30;;
71423;SDS011;59240;51.370;-0.486;2022-11-15T01:29:26;8.98;;;1.60;;
71423;SDS011;59240;51.370;-0.486;2022-11-15T01:31:53;6.68;;;0.70;;
71423;SDS011;59240;51.370;-0.486;2022-11-15T01:34:20;11.48;;;1.00;;
71423;SDS011;59240;51.370;-0.486;2022-11-15T01:36:46;6.60;;;0.60;;
71423;SDS011;59240;51.370;-0.486;2022-11-15T01:39:13;11.80;;;1.40;;
71423;SDS011;59240;51.370;-0.486;2022-11-15T01:41:39;9.18;;;0.90;;
71423;SDS011;59240;51.370;-0.486;2022-11-15T01:47:08;6.93;;;0.43;;
71423;SDS011;59240;51.370;-0.486;2022-11-15T01:49:38;10.00;;;0.80;;
71423;SDS011;59240;51.370;-0.486;2022-11-15T01:52:08;6.83;;;0.50;;
71423;SDS011;59240;51.370;-0.486;2022-11-15T01:54:38;10.15;;;1.00;;
71423;SDS011;59240;51.370;-0.486;2022-11-15T01:57:07;8.63;;;0.47;;
71423;SDS011;59240;51.370;-0.486;2022-11-15T01:59:37;5.57;;;0.20;;
71423;SDS011;59240;51.370;-0.486;2022-11-15T02:02:06;4.03;;;0.32;;
71423;SDS011;59240;51.370;-0.486;2022-11-15T02:04:34;8.73;;;0.73;;
71423;SDS011;59240;51.370;-0.486;2022-11-15T02:07:05;11.45;;;0.60;;
71423;SDS011;59240;51.370;-0.486;2022-11-15T02:09:36;7.43;;;0.47;;
71423;SDS011;59240;51.370;-0.486;2022-11-15T02:12:03;9.02;;;0.93;;
71423;SDS011;59240;51.370;-0.486;2022-11-15T02:14:32;8.38;;;0.40;;
71423;SDS011;59240;51.370;-0.486;2022-11-15T02:36:15;6.03;;;0.40;;
71423;SDS011;59240;51.370;-0.486;2022-11-15T02:39:02;12.25;;;0.80;;
71423;SDS011;59240;51.370;-0.486;2022-11-15T02:41:42;6.47;;;0.40;;
71423;SDS011;59240;51.370;-0.486;2022-11-15T02:44:17;12.00;;;0.87;;
71423;SDS011;59240;51.370;-0.486;2022-11-15T02:46:51;10.30;;;0.95;;
71423;SDS011;59240;51.370;-0.486;2022-11-15T02:49:40;5.70;;;0.73;;
71423;SDS011;59240;51.370;-0.486;2022-11-15T02:52:13;6.53;;;0.73;;
71423;SDS011;59240;51.370;-0.486;2022-11-15T02:54:41;16.20;;;1.50;;
71423;SDS011;59240;51.370;-0.486;2022-11-15T02:57:10;13.90;;;1.67;;
71423;SDS011;59240;51.370;-0.486;2022-11-15T03:02:42;13.32;;;2.47;;
71423;SDS011;59240;51.370;-0.486;2022-11-15T03:05:35;21.23;;;5.25;;
71423;SDS011;59240;51.370;-0.486;2022-11-15T03:13:37;24.15;;;8.45;;
71423;SDS011;59240;51.370;-0.486;2022-11-15T03:18:46;38.85;;;9.60;;
71423;SDS011;59240;51.370;-0.486;2022-11-15T03:21:16;29.80;;;7.68;;
71423;SDS011;59240;51.370;-0.486;2022-11-15T03:23:46;28.40;;;9.93;;
71423;SDS011;59240;51.370;-0.486;2022-11-15T03:26:14;27.60;;;9.88;;
71423;SDS011;59240;51.370;-0.486;2022-11-15T03:28:47;34.65;;;10.30;;
71423;SDS011;59240;51.370;-0.486;2022-11-15T03:31:19;23.90;;;5.78;;
71423;SDS011;59240;51.370;-0.486;2022-11-15T03:36:48;12.47;;;2.60;;
71423;SDS011;59240;51.370;-0.486;2022-11-15T03:39:16;11.43;;;1.13;;
71423;SDS011;59240;51.370;-0.486;2022-11-15T03:44:45;4.60;;;0.85;;
71423;SDS011;59240;51.370;-0.486;2022-11-15T03:47:20;10.20;;;1.10;;
71423;SDS011;59240;51.370;-0.486;2022-11-15T03:50:08;6.87;;;0.53;;
71423;SDS011;59240;51.370;-0.486;2022-11-15T03:52:38;7.22;;;0.60;;
71423;SDS011;59240;51.370;-0.486;2022-11-15T03:55:07;7.82;;;0.73;;
71423;SDS011;59240;51.370;-0.486;2022-11-15T03:57:36;6.95;;;0.70;;
71423;SDS011;59240;51.370;-0.486;2022-11-15T04:00:04;13.52;;;1.00;;
71423;SDS011;59240;51.370;-0.486;2022-11-15T04:02:31;10.57;;;1.00;;
71423;SDS011;59240;51.370;-0.486;2022-11-15T04:04:57;10.98;;;1.75;;
71423;SDS011;59240;51.370;-0.486;2022-11-15T04:07:24;10.15;;;1.02;;
71423;SDS011;59240;51.370;-0.486;2022-11-15T04:09:50;9.48;;;0.88;;
71423;SDS011;59240;51.370;-0.486;2022-11-15T04:12:30;10.38;;;0.95;;
71423;SDS011;59240;51.370;-0.486;2022-11-15T04:15:01;9.80;;;0.93;;
71423;SDS011;59240;51.370;-0.486;2022-11-15T04:17:40;7.68;;;0.52;;
71423;SDS011;59240;51.370;-0.486;2022-11-15T04:20:08;9.23;;;0.60;;
71423;SDS011;59240;51.370;-0.486;2022-11-15T04:22:57;6.78;;;0.40;;
71423;SDS011;59240;51.370;-0.486;2022-11-15T04:25:44;6.43;;;0.52;;
71423;SDS011;59240;51.370;-0.486;2022-11-15T04:28:11;7.07;;;0.60;;
71423;SDS011;59240;51.370;-0.486;2022-11-15T04:30:38;7.65;;;0.93;;
71423;SDS011;59240;51.370;-0.486;2022-11-15T04:33:05;9.65;;;0.90;;
71423;SDS011;59240;51.370;-0.486;2022-11-15T04:35:31;8.05;;;0.68;;
71423;SDS011;59240;51.370;-0.486;2022-11-15T04:37:58;6.30;;;0.70;;
71423;SDS011;59240;51.370;-0.486;2022-11-15T04:40:25;10.20;;;1.30;;
71423;SDS011;59240;51.370;-0.486;2022-11-15T04:42:51;8.50;;;0.65;;
71423;SDS011;59240;51.370;-0.486;2022-11-15T04:45:18;9.13;;;0.88;;
71423;SDS011;59240;51.370;-0.486;2022-11-15T04:47:44;6.35;;;0.68;;
71423;SDS011;59240;51.370;-0.486;2022-11-15T04:50:12;5.13;;;0.65;;
71423;SDS011;59240;51.370;-0.486;2022-11-15T04:52:44;16.50;;;0.83;;
71423;SDS011;59240;51.370;-0.486;2022-11-15T04:55:18;10.90;;;0.90;;
71423;SDS011;59240;51.370;-0.486;2022-11-15T04:57:44;7.53;;;0.75;;
71423;SDS011;59240;51.370;-0.486;2022-11-15T05:00:12;13.27;;;0.85;;
71423;SDS011;59240;51.370;-0.486;2022-11-15T05:02:40;5.22;;;0.65;;
71423;SDS011;59240;51.370;-0.486;2022-11-15T05:05:25;9.40;;;0.70;;
71423;SDS011;59240;51.370;-0.486;2022-11-15T05:07:52;9.82;;;0.57;;
71423;SDS011;59240;51.370;-0.486;2022-11-15T05:10:18;6.35;;;0.40;;
71423;SDS011;59240;51.370;-0.486;2022-11-15T05:12:46;14.73;;;1.42;;
71423;SDS011;59240;51.370;-0.486;2022-11-15T05:15:12;11.02;;;0.82;;
71423;SDS011;59240;51.370;-0.486;2022-11-15T05:17:39;10.27;;;1.23;;
71423;SDS011;59240;51.370;-0.486;2022-11-15T05:20:06;7.60;;;1.27;;
71423;SDS011;59240;51.370;-0.486;2022-11-15T05:22:32;9.38;;;1.60;;
71423;SDS011;59240;51.370;-0.486;2022-11-15T05:24:59;11.30;;;0.90;;
71423;SDS011;59240;51.370;-0.486;2022-11-15T05:27:25;10.32;;;1.10;;
71423;SDS011;59240;51.370;-0.486;2022-11-15T05:29:52;12.47;;;1.47;;
71423;SDS011;59240;51.370;-0.486;2022-11-15T05:32:18;9.68;;;1.40;;
71423;SDS011;59240;51.370;-0.486;2022-11-15T05:34:45;10.00;;;0.63;;
71423;SDS011;59240;51.370;-0.486;2022-11-15T05:37:12;10.43;;;0.70;;
71423;SDS011;59240;51.370;-0.486;2022-11-15T05:39:39;8.88;;;0.73;;
71423;SDS011;59240;51.370;-0.486;2022-11-15T05:42:07;9.30;;;0.80;;
71423;SDS011;59240;51.370;-0.486;2022-11-15T05:44:37;6.82;;;0.63;;
71423;SDS011;59240;51.370;-0.486;2022-11-15T05:47:07;14.07;;;0.88;;
71423;SDS011;59240;51.370;-0.486;2022-11-15T05:49:37;9.15;;;1.23;;
71423;SDS011;59240;51.370;-0.486;2022-11-15T05:52:06;7.20;;;1.30;;
71423;SDS011;59240;51.370;-0.486;2022-11-15T05:54:36;8.50;;;1.27;;
71423;SDS011;59240;51.370;-0.486;2022-11-15T05:57:03;10.82;;;1.75;;
71423;SDS011;59240;51.370;-0.486;2022-11-15T05:59:30;10.23;;;1.52;;
71423;SDS011;59240;51.370;-0.486;2022-11-15T06:01:58;11.18;;;1.02;;
71423;SDS011;59240;51.370;-0.486;2022-11-15T06:04:25;12.95;;;1.27;;
71423;SDS011;59240;51.370;-0.486;2022-11-15T06:06:52;12.20;;;1.10;;
71423;SDS011;59240;51.370;-0.486;2022-11-15T06:09:18;11.23;;;0.95;;
71423;SDS011;59240;51.370;-0.486;2022-11-15T06:11:45;11.82;;;1.52;;
71423;SDS011;59240;51.370;-0.486;2022-11-15T06:14:11;10.85;;;1.65;;
71423;SDS011;59240;51.370;-0.486;2022-11-15T06:16:38;10.95;;;0.40;;
71423;SDS011;59240;51.370;-0.486;2022-11-15T06:19:05;7.23;;;0.87;;
71423;SDS011;59240;51.370;-0.486;2022-11-15T06:21:32;5.10;;;1.08;;
71423;SDS011;59240;51.370;-0.486;2022-11-15T06:23:59;8.23;;;1.10;;
71423;SDS011;59240;51.370;-0.486;2022-11-15T06:26:25;7.15;;;1.05;;
71423;SDS011;59240;51.370;-0.486;2022-11-15T06:28:52;5.50;;;0.70;;
71423;SDS011;59240;51.370;-0.486;2022-11-15T06:31:18;9.23;;;1.30;;
71423;SDS011;59240;51.370;-0.486;2022-11-15T06:33:46;15.70;;;3.15;;
71423;SDS011;59240;51.370;-0.486;2022-11-15T06:36:12;12.80;;;2.33;;
71423;SDS011;59240;51.370;-0.486;2022-11-15T06:38:43;11.73;;;2.80;;
71423;SDS011;59240;51.370;-0.486;2022-11-15T06:41:10;12.50;;;2.20;;
71423;SDS011;59240;51.370;-0.486;2022-11-15T06:43:38;8.07;;;2.13;;
71423;SDS011;59240;51.370;-0.486;2022-11-15T06:46:06;11.80;;;2.80;;
71423;SDS011;59240;51.370;-0.486;2022-11-15T06:48:33;9.90;;;1.70;;
71423;SDS011;59240;51.370;-0.486;2022-11-15T06:51:01;10.35;;;1.75;;
71423;SDS011;59240;51.370;-0.486;2022-11-15T06:53:30;9.38;;;2.67;;
71423;SDS011;59240;51.370;-0.486;2022-11-15T06:55:58;9.47;;;2.47;;
71423;SDS011;59240;51.370;-0.486;2022-11-15T06:58:28;16.15;;;3.90;;
71423;SDS011;59240;51.370;-0.486;2022-11-15T07:01:02;10.45;;;2.10;;
71423;SDS011;59240;51.370;-0.486;2022-11-15T07:03:30;7.72;;;1.38;;
71423;SDS011;59240;51.370;-0.486;2022-11-15T07:05:58;10.60;;;2.00;;
71423;SDS011;59240;51.370;-0.486;2022-11-15T07:08:32;8.17;;;1.50;;
71423;SDS011;59240;51.370;-0.486;2022-11-15T07:10:59;5.05;;;0.60;;
71423;SDS011;59240;51.370;-0.486;2022-11-15T07:13:28;9.05;;;0.90;;
71423;SDS011;59240;51.370;-0.486;2022-11-15T07:16:03;4.78;;;1.08;;
71423;SDS011;59240;51.370;-0.486;2022-11-15T07:18:33;6.43;;;1.67;;
71423;SDS011;59240;51.370;-0.486;2022-11-15T07:21:04;6.97;;;1.10;;
71423;SDS011;59240;51.370;-0.486;2022-11-15T07:23:32;8.43;;;1.50;;
71423;SDS011;59240;51.370;-0.486;2022-11-15T07:25:59;10.63;;;2.20;;
71423;SDS011;59240;51.370;-0.486;2022-11-15T07:28:26;5.60;;;1.15;;
71423;SDS011;59240;51.370;-0.486;2022-11-15T07:30:53;15.07;;;2.78;;
71423;SDS011;59240;51.370;-0.486;2022-11-15T07:33:20;10.73;;;1.83;;
71423;SDS011;59240;51.370;-0.486;2022-11-15T07:35:46;13.15;;;3.67;;
71423;SDS011;59240;51.370;-0.486;2022-11-15T07:38:16;11.98;;;2.55;;
71423;SDS011;59240;51.370;-0.486;2022-11-15T07:40:46;7.40;;;1.02;;
71423;SDS011;59240;51.370;-0.486;2022-11-15T07:43:13;14.18;;;2.65;;
71423;SDS011;59240;51.370;-0.486;2022-11-15T07:45:41;10.13;;;2.50;;
71423;SDS011;59240;51.370;-0.486;2022-11-15T07:48:08;11.00;;;2.35;;
71423;SDS011;59240;51.370;-0.486;2022-11-15T07:50:36;8.02;;;1.70;;
71423;SDS011;59240;51.370;-0.486;2022-11-15T07:53:02;8.60;;;1.30;;
71423;SDS011;59240;51.370;-0.486;2022-11-15T07:55:29;5.15;;;0.68;;
71423;SDS011;59240;51.370;-0.486;2022-11-15T07:58:05;2.60;;;0.23;;
71423;SDS011;59240;51.370;-0.486;2022-11-15T08:00:35;6.07;;;1.05;;
71423;SDS011;59240;51.370;-0.486;2022-11-15T08:03:06;2.40;;;0.25;;
71423;SDS011;59240;51.370;-0.486;2022-11-15T08:05:35;2.10;;;0.10;;
71423;SDS011;59240;51.370;-0.486;2022-11-15T08:08:03;1.00;;;0.10;;
71423;SDS011;59240;51.370;-0.486;2022-11-15T08:10:30;1.97;;;0.20;;
71423;SDS011;59240;51.370;-0.486;2022-11-15T08:13:03;3.65;;;0.30;;
71423;SDS011;59240;51.370;-0.486;2022-11-15T08:15:35;3.13;;;0.30;;
71423;SDS011;59240;51.370;-0.486;2022-11-15T08:18:04;3.33;;;0.25;;
71423;SDS011;59240;51.370;-0.486;2022-11-15T08:20:35;1.98;;;0.17;;
71423;SDS011;59240;51.370;-0.486;2022-11-15T08:23:02;2.87;;;0.20;;
71423;SDS011;59240;51.370;-0.486;2022-11-15T08:25:30;2.60;;;0.17;;
71423;SDS011;59240;51.370;-0.486;2022-11-15T08:28:03;5.68;;;0.30;;
71423;SDS011;59240;51.370;-0.486;2022-11-15T08:30:34;1.27;;;0.10;;
71423;SDS011;59240;51.370;-0.486;2022-11-15T08:33:03;2.05;;;0.20;;
71423;SDS011;59240;51.370;-0.486;2022-11-15T08:35:30;2.03;;;0.13;;
71423;SDS011;59240;51.370;-0.486;2022-11-15T08:37:56;5.90;;;0.47;;
71423;SDS011;59240;51.370;-0.486;2022-11-15T08:40:23;4.75;;;0.40;;
71423;SDS011;59240;51.370;-0.486;2022-11-15T08:42:50;3.58;;;0.30;;
71423;SDS011;59240;51.370;-0.486;2022-11-15T08:45:16;3.03;;;0.30;;
71423;SDS011;59240;51.370;-0.486;2022-11-15T08:47:43;5.63;;;0.50;;
71423;SDS011;59240;51.370;-0.486;2022-11-15T08:50:15;3.17;;;0.47;;
71423;SDS011;59240;51.370;-0.486;2022-11-15T08:52:42;5.53;;;0.43;;
71423;SDS011;59240;51.370;-0.486;2022-11-15T08:55:08;5.55;;;0.80;;
71423;SDS011;59240;51.370;-0.486;2022-11-15T08:57:35;6.47;;;0.70;;
71423;SDS011;59240;51.370;-0.486;2022-11-15T09:00:02;4.13;;;0.50;;
71423;SDS011;59240;51.370;-0.486;2022-11-15T09:02:30;4.38;;;0.70;;
71423;SDS011;59240;51.370;-0.486;2022-11-15T09:04:56;4.60;;;0.40;;
71423;SDS011;59240;51.370;-0.486;2022-11-15T09:07:23;4.40;;;0.38;;
71423;SDS011;59240;51.370;-0.486;2022-11-15T09:09:50;3.90;;;0.40;;
71423;SDS011;59240;51.370;-0.486;2022-11-15T09:12:17;6.00;;;0.40;;
71423;SDS011;59240;51.370;-0.486;2022-11-15T09:14:43;5.07;;;0.40;;
71423;SDS011;59240;51.370;-0.486;2022-11-15T09:17:10;3.47;;;0.20;;
71423;SDS011;59240;51.370;-0.486;2022-11-15T09:19:36;1.95;;;0.25;;
71423;SDS011;59240;51.370;-0.486;2022-11-15T09:22:07;3.53;;;0.40;;
71423;SDS011;59240;51.370;-0.486;2022-11-15T09:24:34;5.90;;;0.40;;
71423;SDS011;59240;51.370;-0.486;2022-11-15T09:27:01;4.90;;;0.30;;
71423;SDS011;59240;51.370;-0.486;2022-11-15T09:29:28;6.68;;;0.30;;
71423;SDS011;59240;51.370;-0.486;2022-11-15T09:31:55;5.05;;;0.40;;
71423;SDS011;59240;51.370;-0.486;2022-11-15T09:34:21;2.63;;;0.30;;
71423;SDS011;59240;51.370;-0.486;2022-11-15T09:36:48;4.10;;;0.20;;
71423;SDS011;59240;51.370;-0.486;2022-11-15T09:39:14;6.05;;;0.80;;
71423;SDS011;59240;51.370;-0.486;2022-11-15T09:50:17;7.43;;;0.90;;
71423;SDS011;59240;51.370;-0.486;2022-11-15T09:52:54;3.47;;;0.50;;
71423;SDS011;59240;51.370;-0.486;2022-11-15T09:55:21;4.72;;;0.50;;
71423;SDS011;59240;51.370;-0.486;2022-11-15T09:58:18;3.53;;;0.25;;
71423;SDS011;59240;51.370;-0.486;2022-11-15T10:00:56;5.13;;;0.73;;
71423;SDS011;59240;51.370;-0.486;2022-11-15T10:03:30;6.83;;;0.70;;
71423;SDS011;59240;51.370;-0.486;2022-11-15T10:06:01;4.15;;;0.20;;
71423;SDS011;59240;51.370;-0.486;2022-11-15T10:11:29;4.32;;;0.30;;
71423;SDS011;59240;51.370;-0.486;2022-11-15T10:14:22;5.85;;;0.50;;
71423;SDS011;59240;51.370;-0.486;2022-11-15T10:22:51;3.85;;;0.30;;
71423;SDS011;59240;51.370;-0.486;2022-11-15T10:25:24;10.70;;;2.00;;
71423;SDS011;59240;51.370;-0.486;2022-11-15T10:28:00;9.05;;;2.58;;
71423;SDS011;59240;51.370;-0.486;2022-11-15T10:30:37;11.73;;;2.77;;
71423;SDS011;59240;51.370;-0.486;2022-11-15T10:41:18;6.03;;;0.57;;
71423;SDS011;59240;51.370;-0.486;2022-11-15T10:44:01;8.63;;;0.83;;
71423;SDS011;59240;51.370;-0.486;2022-11-15T10:46:27;6.97;;;0.88;;
71423;SDS011;59240;51.370;-0.486;2022-11-15T10:51:45;5.95;;;0.45;;
71423;SDS011;59240;51.370;-0.486;2022-11-15T10:54:27;4.03;;;0.38;;
71423;SDS011;59240;51.370;-0.486;2022-11-15T10:56:55;7.07;;;0.67;;
71423;SDS011;59240;51.370;-0.486;2022-11-15T10:59:26;7.30;;;0.70;;
71423;SDS011;59240;51.370;-0.486;2022-11-15T11:02:20;4.57;;;0.45;;
71423;SDS011;59240;51.370;-0.486;2022-11-15T11:05:30;2.88;;;0.30;;
71423;SDS011;59240;51.370;-0.486;2022-11-15T11:10:37;6.47;;;0.30;;
71423;SDS011;59240;51.370;-0.486;2022-11-15T11:25:04;1.37;;;0.20;;
71423;SDS011;59240;51.370;-0.486;2022-11-15T11:33:13;2.92;;;0.20;;
71423;SDS011;59240;51.370;-0.486;2022-11-15T11:41:27;2.33;;;0.20;;
71423;SDS011;59240;51.370;-0.486;2022-11-15T11:47:09;3.30;;;0.15;;
71423;SDS011;59240;51.370;-0.486;2022-11-15T11:50:00;1.58;;;0.10;;
71423;SDS011;59240;51.370;-0.486;2022-11-15T12:00:51;7.72;;;0.52;;
71423;SDS011;59240;51.370;-0.486;2022-11-15T12:06:21;7.10;;;0.40;;
71423;SDS011;59240;51.370;-0.486;2022-11-15T12:14:40;5.70;;;0.50;;
71423;SDS011;59240;51.370;-0.486;2022-11-15T12:17:11;5.22;;;0.45;;
71423;SDS011;59240;51.370;-0.486;2022-11-15T12:19:39;6.10;;;0.50;;
71423;SDS011;59240;51.370;-0.486;2022-11-15T12:22:09;7.32;;;0.93;;
71423;SDS011;59240;51.370;-0.486;2022-11-15T12:24:45;6.47;;;0.65;;
71423;SDS011;59240;51.370;-0.486;2022-11-15T12:29:52;8.32;;;0.60;;
71423;SDS011;59240;51.370;-0.486;2022-11-15T12:32:25;6.83;;;1.07;;
71423;SDS011;59240;51.370;-0.486;2022-11-15T12:34:52;8.25;;;0.38;;
71423;SDS011;59240;51.370;-0.486;2022-11-15T12:45:40;5.93;;;0.20;;
71423;SDS011;59240;51.370;-0.486;2022-11-15T12:56:08;8.50;;;0.65;;
71423;SDS011;59240;51.370;-0.486;2022-11-15T12:58:52;6.70;;;0.60;;
71423;SDS011;59240;51.370;-0.486;2022-11-15T13:01:52;10.52;;;0.77;;
71423;SDS011;59240;51.370;-0.486;2022-11-15T13:11:56;6.23;;;0.37;;
71423;SDS011;59240;51.370;-0.486;2022-11-15T13:14:42;8.45;;;0.93;;
71423;SDS011;59240;51.370;-0.486;2022-11-15T13:22:38;4.35;;;0.50;;
71423;SDS011;59240;51.370;-0.486;2022-11-15T13:28:03;8.82;;;0.82;;
71423;SDS011;59240;51.370;-0.486;2022-11-15T13:30:35;4.05;;;0.50;;
71423;SDS011;59240;51.370;-0.486;2022-11-15T13:33:37;5.05;;;0.95;;
71423;SDS011;59240;51.370;-0.486;2022-11-15T13:36:11;5.43;;;0.60;;
71423;SDS011;59240;51.370;-0.486;2022-11-15T13:38:45;5.00;;;0.50;;
71423;SDS011;59240;51.370;-0.486;2022-11-15T13:41:23;8.88;;;0.85;;
71423;SDS011;59240;51.370;-0.486;2022-11-15T13:43:52;6.30;;;0.45;;
71423;SDS011;59240;51.370;-0.486;2022-11-15T13:46:21;3.88;;;0.32;;
71423;SDS011;59240;51.370;-0.486;2022-11-15T13:56:34;7.82;;;0.60;;
71423;SDS011;59240;51.370;-0.486;2022-11-15T13:59:36;9.77;;;1.25;;
71423;SDS011;59240;51.370;-0.486;2022-11-15T14:02:20;5.10;;;0.40;;
71423;SDS011;59240;51.370;-0.486;2022-11-15T14:04:55;4.10;;;0.60;;
71423;SDS011;59240;51.370;-0.486;2022-11-15T14:07:25;7.40;;;0.75;;
71423;SDS011;59240;51.370;-0.486;2022-11-15T14:09:54;6.40;;;1.30;;
71423;SDS011;59240;51.370;-0.486;2022-11-15T14:17:46;3.43;;;0.27;;
71423;SDS011;59240;51.370;-0.486;2022-11-15T14:20:19;5.00;;;0.50;;
71423;SDS011;59240;51.370;-0.486;2022-11-15T14:22:59;6.35;;;0.30;;
71423;SDS011;59240;51.370;-0.486;2022-11-15T14:25:28;4.10;;;0.40;;
71423;SDS011;59240;51.370;-0.486;2022-11-15T14:28:41;3.90;;;0.63;;
71423;SDS011;59240;51.370;-0.486;2022-11-15T14:30:49;4.13;;;0.40;;
71423;SDS011;59240;51.370;-0.486;2022-11-15T14:33:22;5.25;;;0.40;;
71423;SDS011;59240;51.370;-0.486;2022-11-15T14:35:49;4.15;;;0.38;;
71423;SDS011;59240;51.370;-0.486;2022-11-15T14:38:17;4.22;;;0.45;;
71423;SDS011;59240;51.370;-0.486;2022-11-15T14:40:43;7.55;;;0.60;;
71423;SDS011;59240;51.370;-0.486;2022-11-15T14:43:10;3.83;;;0.20;;
71423;SDS011;59240;51.370;-0.486;2022-11-15T14:45:38;4.78;;;0.35;;
71423;SDS011;59240;51.370;-0.486;2022-11-15T14:48:05;5.13;;;0.35;;
71423;SDS011;59240;51.370;-0.486;2022-11-15T14:50:32;2.50;;;0.20;;
71423;SDS011;59240;51.370;-0.486;2022-11-15T14:53:00;5.07;;;0.40;;
71423;SDS011;59240;51.370;-0.486;2022-11-15T14:55:33;3.37;;;0.40;;
71423;SDS011;59240;51.370;-0.486;2022-11-15T14:58:02;3.10;;;0.30;;
71423;SDS011;59240;51.370;-0.486;2022-11-15T15:00:31;3.90;;;0.22;;
71423;SDS011;59240;51.370;-0.486;2022-11-15T15:03:00;6.32;;;0.40;;
71423;SDS011;59240;51.370;-0.486;2022-11-15T15:05:32;8.27;;;0.60;;
71423;SDS011;59240;51.370;-0.486;2022-11-15T15:08:02;5.30;;;1.20;;
71423;SDS011;59240;51.370;-0.486;2022-11-15T15:10:34;8.05;;;0.80;;
71423;SDS011;59240;51.370;-0.486;2022-11-15T15:13:08;4.35;;;0.47;;
71423;SDS011;59240;51.370;-0.486;2022-11-15T15:15:41;12.25;;;1.52;;
71423;SDS011;59240;51.370;-0.486;2022-11-15T15:18:07;22.20;;;8.65;;
71423;SDS011;59240;51.370;-0.486;2022-11-15T15:20:35;15.07;;;6.47;;
71423;SDS011;59240;51.370;-0.486;2022-11-15T15:23:03;10.75;;;3.25;;
71423;SDS011;59240;51.370;-0.486;2022-11-15T15:25:30;11.05;;;2.40;;
71423;SDS011;59240;51.370;-0.486;2022-11-15T15:28:01;12.20;;;2.05;;
71423;SDS011;59240;51.370;-0.486;2022-11-15T15:30:28;10.55;;;2.10;;
71423;SDS011;59240;51.370;-0.486;2022-11-15T15:32:56;12.07;;;3.37;;
71423;SDS011;59240;51.370;-0.486;2022-11-15T15:35:23;6.18;;;1.42;;
71423;SDS011;59240;51.370;-0.486;2022-11-15T15:37:54;10.57;;;4.60;;
71423;SDS011;59240;51.370;-0.486;2022-11-15T15:40:22;5.10;;;1.05;;
71423;SDS011;59240;51.370;-0.486;2022-11-15T15:42:50;4.97;;;0.52;;
71423;SDS011;59240;51.370;-0.486;2022-11-15T15:45:17;5.47;;;0.50;;
71423;SDS011;59240;51.370;-0.486;2022-11-15T15:47:44;8.93;;;1.42;;
71423;SDS011;59240;51.370;-0.486;2022-11-15T15:52:52;5.95;;;0.35;;
71423;SDS011;59240;51.370;-0.486;2022-11-15T15:55:21;6.28;;;0.32;;
71423;SDS011;59240;51.370;-0.486;2022-11-15T15:57:48;7.03;;;0.40;;
71423;SDS011;59240;51.370;-0.486;2022-11-15T16:00:15;7.38;;;1.38;;
71423;SDS011;59240;51.370;-0.486;2022-11-15T16:02:42;3.55;;;0.63;;
71423;SDS011;59240;51.370;-0.486;2022-11-15T16:05:09;6.53;;;1.45;;
71423;SDS011;59240;51.370;-0.486;2022-11-15T16:07:36;6.55;;;0.77;;
71423;SDS011;59240;51.370;-0.486;2022-11-15T16:10:14;7.87;;;0.80;;
71423;SDS011;59240;51.370;-0.486;2022-11-15T16:12:44;5.78;;;0.95;;
71423;SDS011;59240;51.370;-0.486;2022-11-15T16:15:11;6.13;;;0.75;;
71423;SDS011;59240;51.370;-0.486;2022-11-15T16:17:38;6.07;;;0.50;;
71423;SDS011;59240;51.370;-0.486;2022-11-15T16:20:15;5.00;;;0.60;;
71423;SDS011;59240;51.370;-0.486;2022-11-15T16:23:08;5.67;;;0.57;;
71423;SDS011;59240;51.370;-0.486;2022-11-15T16:25:46;4.90;;;0.55;;
71423;SDS011;59240;51.370;-0.486;2022-11-15T16:28:18;7.28;;;0.75;;
71423;SDS011;59240;51.370;-0.486;2022-11-15T16:30:45;7.55;;;0.68;;
71423;SDS011;59240;51.370;-0.486;2022-11-15T16:33:18;5.70;;;0.88;;
71423;SDS011;59240;51.370;-0.486;2022-11-15T16:35:46;5.37;;;0.80;;
71423;SDS011;59240;51.370;-0.486;2022-11-15T16:38:14;8.10;;;1.02;;
71423;SDS011;59240;51.370;-0.486;2022-11-15T16:40:41;5.22;;;0.65;;
71423;SDS011;59240;51.370;-0.486;2022-11-15T16:43:08;4.32;;;0.60;;
71423;SDS011;59240;51.370;-0.486;2022-11-15T16:45:35;9.90;;;0.60;;
71423;SDS011;59240;51.370;-0.486;2022-11-15T16:48:02;3.40;;;0.40;;
71423;SDS011;59240;51.370;-0.486;2022-11-15T16:50:30;9.68;;;0.65;;
71423;SDS011;59240;51.370;-0.486;2022-11-15T16:53:00;7.95;;;0.60;;
71423;SDS011;59240;51.370;-0.486;2022-11-15T16:55:27;7.15;;;0.60;;
71423;SDS011;59240;51.370;-0.486;2022-11-15T16:57:55;5.45;;;0.47;;
71423;SDS011;59240;51.370;-0.486;2022-11-15T17:00:24;6.40;;;0.70;;
71423;SDS011;59240;51.370;-0.486;2022-11-15T17:02:51;6.95;;;0.63;;
71423;SDS011;59240;51.370;-0.486;2022-11-15T17:05:19;6.40;;;0.45;;
71423;SDS011;59240;51.370;-0.486;2022-11-15T17:07:47;6.95;;;1.00;;
71423;SDS011;59240;51.370;-0.486;2022-11-15T17:10:15;9.32;;;1.40;;
71423;SDS011;59240;51.370;-0.486;2022-11-15T17:12:42;6.43;;;1.10;;
71423;SDS011;59240;51.370;-0.486;2022-11-15T17:15:10;6.00;;;1.10;;
71423;SDS011;59240;51.370;-0.486;2022-11-15T17:17:38;8.98;;;1.13;;
71423;SDS011;59240;51.370;-0.486;2022-11-15T17:20:06;8.02;;;1.10;;
71423;SDS011;59240;51.370;-0.486;2022-11-15T17:22:39;6.05;;;0.90;;
71423;SDS011;59240;51.370;-0.486;2022-11-15T17:25:05;7.37;;;0.70;;
71423;SDS011;59240;51.370;-0.486;2022-11-15T17:27:32;9.50;;;0.70;;
71423;SDS011;59240;51.370;-0.486;2022-11-15T17:29:58;6.40;;;0.73;;
71423;SDS011;59240;51.370;-0.486;2022-11-15T17:32:25;5.13;;;1.00;;